^^
Station Historical Data
Daily Summary for December 5, 2017 Units:  Both    English   Metric
« Previous Day
Next Day »
Daily Weekly Monthly Yearly Custom
  High: Low: Average:
Temperature: 91.6 °F /  33.1 °C 65.5 °F /  18.6 °C 77.5 °F /  25.3 °C
Dew Point: 60.6 °F /  15.9 °C 28.6 °F /  -1.9 °C 46.7 °F /  8.2 °C
Humidity: 65% 19% 37%
Wind Speed: 12.1mph /  19.5km/h - 2.4mph /  3.9km/h
Wind Gust: 13.0mph /  20.9km/h - -
Wind- - South
Pressure: 30.24 in /  1023.9 hPa 30.03 in /  1016.8 hPa -
Precipitation: 0.02 in /  0.51 mm    
Historical Graphs
 
 
Tabular Data for December 5, 2017
Time Temperature Dew Point Pressure Wind Wind Speed Wind Gust Humidity Rainfall Rate (Hourly) solar Conditions
00:03 71.8 °F /  22.1 °C 28.6 °F /  -1.9 °C 30.24in /  1023.9hPa Calm     20% 0.00in /  0mm 0.0 W/m2
00:09 71.8 °F /  22.1 °C 28.6 °F /  -1.9 °C 30.23in /  1023.6hPa Calm   1.0mph /  1.6km/h 20% 0.00in /  0mm 0.0 W/m2
00:14 71.8 °F /  22.1 °C 28.6 °F /  -1.9 °C 30.24in /  1023.9hPa Calm     20% 0.00in /  0mm 0.0 W/m2
00:19 71.4 °F /  21.9 °C 29.5 °F /  -1.4 °C 30.23in /  1023.6hPa Calm   1.0mph /  1.6km/h 21% 0.00in /  0mm 0.0 W/m2
00:24 71.4 °F /  21.9 °C 29.5 °F /  -1.4 °C 30.23in /  1023.6hPa NE 2.0mph /  3.2km/h 2.0mph /  3.2km/h 21% 0.00in /  0mm 0.0 W/m2
00:29 71.2 °F /  21.8 °C 30.4 °F /  -0.9 °C 30.23in /  1023.6hPa Calm   3.0mph /  4.8km/h 22% 0.00in /  0mm 0.0 W/m2
00:34 71.1 °F /  21.7 °C 30.2 °F /  -1 °C 30.23in /  1023.6hPa Calm   3.0mph /  4.8km/h 22% 0.00in /  0mm 0.0 W/m2
00:39 71.1 °F /  21.7 °C 31.5 °F /  -0.3 °C 30.23in /  1023.6hPa Calm   1.0mph /  1.6km/h 23% 0.00in /  0mm 0.0 W/m2
00:44 70.9 °F /  21.6 °C 32.4 °F /  0.2 °C 30.22in /  1023.2hPa NE 4.9mph /  7.9km/h 5.0mph /  8km/h 24% 0.00in /  0mm 0.0 W/m2
00:50 70.9 °F /  21.6 °C 37.0 °F /  2.8 °C 30.22in /  1023.2hPa NE 0.9mph /  1.4km/h 3.0mph /  4.8km/h 29% 0.00in /  0mm 0.0 W/m2
00:55 70.7 °F /  21.5 °C 37.8 °F /  3.2 °C 30.21in /  1022.9hPa Calm   3.0mph /  4.8km/h 30% 0.00in /  0mm 0.0 W/m2
01:00 70.5 °F /  21.4 °C 35.8 °F /  2.1 °C 30.21in /  1022.9hPa Calm   2.0mph /  3.2km/h 28% 0.00in /  0mm 0.0 W/m2
01:06 70.3 °F /  21.3 °C 35.6 °F /  2 °C 30.21in /  1022.9hPa Calm   2.0mph /  3.2km/h 28% 0.00in /  0mm 0.0 W/m2
01:11 70.3 °F /  21.3 °C 34.7 °F /  1.5 °C 30.21in /  1022.9hPa ENE 2.0mph /  3.2km/h 2.0mph /  3.2km/h 27% 0.00in /  0mm 0.0 W/m2
01:16 70.2 °F /  21.2 °C 33.6 °F /  0.9 °C 30.21in /  1022.9hPa Calm   1.0mph /  1.6km/h 26% 0.00in /  0mm 0.0 W/m2
01:22 70.2 °F /  21.2 °C 34.7 °F /  1.5 °C 30.21in /  1022.9hPa Calm   3.0mph /  4.8km/h 27% 0.00in /  0mm 0.0 W/m2
01:27 70.0 °F /  21.1 °C 35.4 °F /  1.9 °C 30.20in /  1022.6hPa Calm   2.0mph /  3.2km/h 28% 0.00in /  0mm 0.0 W/m2
01:32 70.0 °F /  21.1 °C 39.6 °F /  4.2 °C 30.20in /  1022.6hPa Calm   1.0mph /  1.6km/h 33% 0.00in /  0mm 0.0 W/m2
01:38 70.0 °F /  21.1 °C 43.9 °F /  6.6 °C 30.20in /  1022.6hPa ESE 2.0mph /  3.2km/h 6.0mph /  9.7km/h 39% 0.00in /  0mm 0.0 W/m2
01:43 70.0 °F /  21.1 °C 46.4 °F /  8 °C 30.20in /  1022.6hPa Calm   4.0mph /  6.4km/h 43% 0.00in /  0mm 0.0 W/m2
01:48 70.0 °F /  21.1 °C 49.5 °F /  9.7 °C 30.19in /  1022.2hPa Calm   2.0mph /  3.2km/h 48% 0.00in /  0mm 0.0 W/m2
01:54 70.2 °F /  21.2 °C 50.7 °F /  10.4 °C 30.19in /  1022.2hPa NE 2.0mph /  3.2km/h 8.0mph /  12.9km/h 50% 0.00in /  0mm 0.0 W/m2
01:59 70.2 °F /  21.2 °C 51.3 °F /  10.7 °C 30.18in /  1021.9hPa ESE 4.9mph /  7.9km/h 9.0mph /  14.5km/h 51% 0.00in /  0mm 0.0 W/m2
02:04 70.2 °F /  21.2 °C 51.8 °F /  11 °C 30.18in /  1021.9hPa Calm   3.0mph /  4.8km/h 52% 0.00in /  0mm 0.0 W/m2
02:10 70.0 °F /  21.1 °C 51.6 °F /  10.9 °C 30.18in /  1021.9hPa NE 4.0mph /  6.4km/h 8.0mph /  12.9km/h 52% 0.00in /  0mm 0.0 W/m2
02:15 70.0 °F /  21.1 °C 52.0 °F /  11.1 °C 30.18in /  1021.9hPa ESE 4.0mph /  6.4km/h 7.0mph /  11.3km/h 53% 0.00in /  0mm 0.0 W/m2
02:20 70.0 °F /  21.1 °C 52.0 °F /  11.1 °C 30.18in /  1021.9hPa North 2.0mph /  3.2km/h 7.0mph /  11.3km/h 53% 0.00in /  0mm 0.0 W/m2
02:26 69.6 °F /  20.9 °C 52.2 °F /  11.2 °C 30.17in /  1021.6hPa SE 0.9mph /  1.4km/h 12.0mph /  19.3km/h 54% 0.00in /  0mm 0.0 W/m2
02:31 69.6 °F /  20.9 °C 52.7 °F /  11.5 °C 30.17in /  1021.6hPa ESE 10.1mph /  16.3km/h 10.1mph /  16.3km/h 55% 0.00in /  0mm 0.0 W/m2
02:36 69.4 °F /  20.8 °C 52.5 °F /  11.4 °C 30.17in /  1021.6hPa ESE 2.9mph /  4.7km/h 10.0mph /  16.1km/h 55% 0.00in /  0mm 0.0 W/m2
02:42 69.3 °F /  20.7 °C 52.9 °F /  11.6 °C 30.17in /  1021.6hPa NE 4.0mph /  6.4km/h 10.0mph /  16.1km/h 56% 0.00in /  0mm 0.0 W/m2
02:47 69.3 °F /  20.7 °C 52.9 °F /  11.6 °C 30.17in /  1021.6hPa ENE 4.0mph /  6.4km/h 8.0mph /  12.9km/h 56% 0.00in /  0mm 0.0 W/m2
02:52 69.1 °F /  20.6 °C 52.7 °F /  11.5 °C 30.16in /  1021.2hPa East 2.9mph /  4.7km/h 7.0mph /  11.3km/h 56% 0.00in /  0mm 0.0 W/m2
02:58 69.1 °F /  20.6 °C 52.7 °F /  11.5 °C 30.16in /  1021.2hPa NE 4.0mph /  6.4km/h 5.0mph /  8km/h 56% 0.00in /  0mm 0.0 W/m2
03:03 68.7 °F /  20.4 °C 52.9 °F /  11.6 °C 30.16in /  1021.2hPa WNW 4.9mph /  7.9km/h 5.0mph /  8km/h 57% 0.00in /  0mm 0.0 W/m2
03:08 68.7 °F /  20.4 °C 52.9 °F /  11.6 °C 30.16in /  1021.2hPa Calm   6.0mph /  9.7km/h 57% 0.00in /  0mm 0.0 W/m2
03:14 68.5 °F /  20.3 °C 52.7 °F /  11.5 °C 30.16in /  1021.2hPa Calm   8.0mph /  12.9km/h 57% 0.00in /  0mm 0.0 W/m2
03:19 68.5 °F /  20.3 °C 53.2 °F /  11.8 °C 30.15in /  1020.9hPa ENE 2.9mph /  4.7km/h 7.0mph /  11.3km/h 58% 0.00in /  0mm 0.0 W/m2
03:24 68.4 °F /  20.2 °C 53.1 °F /  11.7 °C 30.15in /  1020.9hPa ENE 2.9mph /  4.7km/h 10.0mph /  16.1km/h 58% 0.00in /  0mm 0.0 W/m2
03:30 68.2 °F /  20.1 °C 53.2 °F /  11.8 °C 30.15in /  1020.9hPa SE 4.0mph /  6.4km/h 9.0mph /  14.5km/h 59% 0.00in /  0mm 0.0 W/m2
03:35 68.2 °F /  20.1 °C 53.2 °F /  11.8 °C 30.15in /  1020.9hPa ESE 4.9mph /  7.9km/h 10.0mph /  16.1km/h 59% 0.00in /  0mm 0.0 W/m2
03:40 67.8 °F /  19.9 °C 52.9 °F /  11.6 °C 30.15in /  1020.9hPa East 2.0mph /  3.2km/h 7.0mph /  11.3km/h 59% 0.00in /  0mm 0.0 W/m2
03:46 67.8 °F /  19.9 °C 53.4 °F /  11.9 °C 30.15in /  1020.9hPa East 4.0mph /  6.4km/h 7.0mph /  11.3km/h 60% 0.00in /  0mm 0.0 W/m2
03:51 67.6 °F /  19.8 °C 53.2 °F /  11.8 °C 30.15in /  1020.9hPa East 0.9mph /  1.4km/h 8.0mph /  12.9km/h 60% 0.00in /  0mm 0.0 W/m2
03:56 67.5 °F /  19.7 °C 53.1 °F /  11.7 °C 30.15in /  1020.9hPa East 4.9mph /  7.9km/h 9.0mph /  14.5km/h 60% 0.00in /  0mm 0.0 W/m2
04:02 67.3 °F /  19.6 °C 53.4 °F /  11.9 °C 30.15in /  1020.9hPa NE 6.0mph /  9.7km/h 7.0mph /  11.3km/h 61% 0.00in /  0mm 0.0 W/m2
04:07 67.1 °F /  19.5 °C 53.2 °F /  11.8 °C 30.15in /  1020.9hPa NNE 6.0mph /  9.7km/h 6.0mph /  9.7km/h 61% 0.00in /  0mm 0.0 W/m2
04:12 66.9 °F /  19.4 °C 53.4 °F /  11.9 °C 30.15in /  1020.9hPa East 2.0mph /  3.2km/h 5.0mph /  8km/h 62% 0.00in /  0mm 0.0 W/m2
04:18 66.7 °F /  19.3 °C 53.2 °F /  11.8 °C 30.15in /  1020.9hPa Calm   5.0mph /  8km/h 62% 0.00in /  0mm 0.0 W/m2
04:23 66.6 °F /  19.2 °C 53.1 °F /  11.7 °C 30.15in /  1020.9hPa Calm   4.0mph /  6.4km/h 62% 0.00in /  0mm 0.0 W/m2
04:28 66.6 °F /  19.2 °C 53.6 °F /  12 °C 30.15in /  1020.9hPa NE 0.9mph /  1.4km/h 2.0mph /  3.2km/h 63% 0.00in /  0mm 0.0 W/m2
04:34 66.4 °F /  19.1 °C 53.4 °F /  11.9 °C 30.15in /  1020.9hPa East 0.9mph /  1.4km/h 5.0mph /  8km/h 63% 0.00in /  0mm 0.0 W/m2
04:39 66.4 °F /  19.1 °C 53.4 °F /  11.9 °C 30.15in /  1020.9hPa Calm   4.0mph /  6.4km/h 63% 0.00in /  0mm 0.0 W/m2
04:44 66.4 °F /  19.1 °C 53.4 °F /  11.9 °C 30.15in /  1020.9hPa East 2.9mph /  4.7km/h 5.0mph /  8km/h 63% 0.00in /  0mm 0.0 W/m2
04:50 66.2 °F /  19 °C 53.2 °F /  11.8 °C 30.15in /  1020.9hPa ESE 4.0mph /  6.4km/h 4.0mph /  6.4km/h 63% 0.00in /  0mm 0.0 W/m2
04:55 66.4 °F /  19.1 °C 53.8 °F /  12.1 °C 30.14in /  1020.5hPa ENE 7.0mph /  11.3km/h 7.0mph /  11.3km/h 64% 0.00in /  0mm 0.0 W/m2
05:00 66.2 °F /  19 °C 53.6 °F /  12 °C 30.14in /  1020.5hPa NE 0.9mph /  1.4km/h 6.0mph /  9.7km/h 64% 0.00in /  0mm 0.0 W/m2
05:06 66.2 °F /  19 °C 53.6 °F /  12 °C 30.14in /  1020.5hPa ENE 4.0mph /  6.4km/h 5.0mph /  8km/h 64% 0.00in /  0mm 0.0 W/m2
05:14 66.0 °F /  18.9 °C 53.4 °F /  11.9 °C 30.15in /  1020.9hPa ENE 0.9mph /  1.4km/h 5.0mph /  8km/h 64% 0.00in /  0mm 0.0 W/m2
05:19 66.0 °F /  18.9 °C 53.4 °F /  11.9 °C 30.15in /  1020.9hPa East 2.0mph /  3.2km/h 2.0mph /  3.2km/h 64% 0.00in /  0mm 0.0 W/m2
05:24 66.0 °F /  18.9 °C 53.4 °F /  11.9 °C 30.15in /  1020.9hPa Calm   2.0mph /  3.2km/h 64% 0.00in /  0mm 0.0 W/m2
05:30 66.0 °F /  18.9 °C 53.4 °F /  11.9 °C 30.15in /  1020.9hPa Calm     64% 0.00in /  0mm 0.0 W/m2
05:35 66.0 °F /  18.9 °C 54.0 °F /  12.2 °C 30.15in /  1020.9hPa Calm     65% 0.00in /  0mm 0.0 W/m2
05:36 66.0 °F /  18.9 °C 54.0 °F /  12.2 °C 30.15in /  1020.9hPa Calm     65% 0.00in /  0mm 0.0 W/m2
05:41 65.8 °F /  18.8 °C 53.8 °F /  12.1 °C 30.15in /  1020.9hPa Calm   1.0mph /  1.6km/h 65% 0.00in /  0mm 0.0 W/m2
05:46 65.8 °F /  18.8 °C 53.8 °F /  12.1 °C 30.15in /  1020.9hPa Calm   3.0mph /  4.8km/h 65% 0.00in /  0mm 0.0 W/m2
05:51 65.8 °F /  18.8 °C 53.8 °F /  12.1 °C 30.15in /  1020.9hPa Calm   1.0mph /  1.6km/h 65% 0.00in /  0mm 0.0 W/m2
05:56 65.8 °F /  18.8 °C 53.8 °F /  12.1 °C 30.16in /  1021.2hPa East 0.9mph /  1.4km/h 3.0mph /  4.8km/h 65% 0.00in /  0mm 0.0 W/m2
06:02 65.8 °F /  18.8 °C 53.8 °F /  12.1 °C 30.16in /  1021.2hPa East 0.9mph /  1.4km/h 2.0mph /  3.2km/h 65% 0.00in /  0mm 0.0 W/m2
06:07 65.7 °F /  18.7 °C 53.6 °F /  12 °C 30.16in /  1021.2hPa Calm   3.0mph /  4.8km/h 65% 0.00in /  0mm 7.0 W/m2
06:12 65.7 °F /  18.7 °C 53.6 °F /  12 °C 30.16in /  1021.2hPa SE 2.9mph /  4.7km/h 4.0mph /  6.4km/h 65% 0.00in /  0mm 12.0 W/m2
06:17 65.5 °F /  18.6 °C 53.4 °F /  11.9 °C 30.16in /  1021.2hPa Calm   2.0mph /  3.2km/h 65% 0.00in /  0mm 14.0 W/m2
06:22 65.5 °F /  18.6 °C 53.4 °F /  11.9 °C 30.16in /  1021.2hPa SE 4.0mph /  6.4km/h 6.0mph /  9.7km/h 65% 0.00in /  0mm 16.0 W/m2
06:27 65.5 °F /  18.6 °C 53.4 °F /  11.9 °C 30.16in /  1021.2hPa Calm   2.0mph /  3.2km/h 65% 0.00in /  0mm 25.0 W/m2
06:32 65.5 °F /  18.6 °C 53.4 °F /  11.9 °C 30.16in /  1021.2hPa Calm   4.0mph /  6.4km/h 65% 0.00in /  0mm 42.0 W/m2
06:37 65.5 °F /  18.6 °C 53.4 °F /  11.9 °C 30.17in /  1021.6hPa East 0.9mph /  1.4km/h 2.0mph /  3.2km/h 65% 0.00in /  0mm 60.0 W/m2
06:42 65.7 °F /  18.7 °C 53.6 °F /  12 °C 30.17in /  1021.6hPa NE 2.0mph /  3.2km/h 4.0mph /  6.4km/h 65% 0.00in /  0mm 58.0 W/m2
06:47 66.0 °F /  18.9 °C 54.0 °F /  12.2 °C 30.17in /  1021.6hPa Calm   5.0mph /  8km/h 65% 0.00in /  0mm 69.0 W/m2
06:58 66.7 °F /  19.3 °C 53.8 °F /  12.1 °C 30.17in /  1021.6hPa Calm   7.0mph /  11.3km/h 63% 0.00in /  0mm 67.0 W/m2
07:03 66.9 °F /  19.4 °C 53.4 °F /  11.9 °C 30.17in /  1021.6hPa Calm   4.0mph /  6.4km/h 62% 0.00in /  0mm 72.0 W/m2
07:08 67.3 °F /  19.6 °C 53.4 °F /  11.9 °C 30.17in /  1021.6hPa Calm   4.0mph /  6.4km/h 61% 0.00in /  0mm 76.0 W/m2
07:13 67.6 °F /  19.8 °C 53.2 °F /  11.8 °C 30.17in /  1021.6hPa Calm   5.0mph /  8km/h 60% 0.00in /  0mm 84.0 W/m2
07:16 67.6 °F /  19.8 °C 53.2 °F /  11.8 °C 30.17in /  1021.6hPa ENE 2.9mph /  4.7km/h 3.0mph /  4.8km/h 60% 0.00in /  0mm 88.0 W/m2
07:21 67.8 °F /  19.9 °C 53.4 °F /  11.9 °C 30.17in /  1021.6hPa Calm   1.0mph /  1.6km/h 60% 0.00in /  0mm 109.0 W/m2
07:26 68.4 °F /  20.2 °C 53.4 °F /  11.9 °C 30.17in /  1021.6hPa NE 2.0mph /  3.2km/h 3.0mph /  4.8km/h 59% 0.00in /  0mm 209.0 W/m2
07:31 68.7 °F /  20.4 °C 53.4 °F /  11.9 °C 30.17in /  1021.6hPa East 0.9mph /  1.4km/h 7.0mph /  11.3km/h 58% 0.00in /  0mm 153.0 W/m2
07:36 69.3 °F /  20.7 °C 53.4 °F /  11.9 °C 30.17in /  1021.6hPa East 2.0mph /  3.2km/h 3.0mph /  4.8km/h 57% 0.00in /  0mm 415.0 W/m2
07:42 70.0 °F /  21.1 °C 53.6 °F /  12 °C 30.17in /  1021.6hPa ESE 0.9mph /  1.4km/h 4.0mph /  6.4km/h 56% 0.00in /  0mm 118.0 W/m2
07:48 70.5 °F /  21.4 °C 53.6 °F /  12 °C 30.17in /  1021.6hPa ENE 0.9mph /  1.4km/h 3.0mph /  4.8km/h 55% 0.00in /  0mm 432.0 W/m2
07:53 71.2 °F /  21.8 °C 53.2 °F /  11.8 °C 30.17in /  1021.6hPa East 2.9mph /  4.7km/h 7.0mph /  11.3km/h 53% 0.00in /  0mm 432.0 W/m2
07:58 72.3 °F /  22.4 °C 53.2 °F /  11.8 °C 30.17in /  1021.6hPa NE 0.9mph /  1.4km/h 6.0mph /  9.7km/h 51% 0.00in /  0mm 427.0 W/m2
08:03 73.0 °F /  22.8 °C 53.2 °F /  11.8 °C 30.17in /  1021.6hPa NNE 2.0mph /  3.2km/h 7.0mph /  11.3km/h 50% 0.00in /  0mm 438.0 W/m2
08:08 73.8 °F /  23.2 °C 52.9 °F /  11.6 °C 30.17in /  1021.6hPa NE 2.0mph /  3.2km/h 5.0mph /  8km/h 48% 0.00in /  0mm 457.0 W/m2
08:13 74.5 °F /  23.6 °C 52.9 °F /  11.6 °C 30.17in /  1021.6hPa NNE 2.9mph /  4.7km/h 5.0mph /  8km/h 47% 0.00in /  0mm 487.0 W/m2
08:18 74.8 °F /  23.8 °C 52.7 °F /  11.5 °C 30.16in /  1021.2hPa NNE 4.0mph /  6.4km/h 7.0mph /  11.3km/h 46% 0.00in /  0mm 526.0 W/m2
08:23 75.6 °F /  24.2 °C 52.7 °F /  11.5 °C 30.17in /  1021.6hPa ENE 6.9mph /  11.1km/h 8.0mph /  12.9km/h 45% 0.00in /  0mm 548.0 W/m2
08:28 75.7 °F /  24.3 °C 52.3 °F /  11.3 °C 30.16in /  1021.2hPa ENE 4.9mph /  7.9km/h 10.0mph /  16.1km/h 44% 0.00in /  0mm 555.0 W/m2
08:33 76.3 °F /  24.6 °C 52.7 °F /  11.5 °C 30.16in /  1021.2hPa NNW 2.0mph /  3.2km/h 6.0mph /  9.7km/h 44% 0.00in /  0mm 575.0 W/m2
08:38 76.8 °F /  24.9 °C 52.7 °F /  11.5 °C 30.16in /  1021.2hPa North 2.0mph /  3.2km/h 7.0mph /  11.3km/h 43% 0.00in /  0mm 585.0 W/m2
08:44 77.5 °F /  25.3 °C 52.7 °F /  11.5 °C 30.16in /  1021.2hPa NE 2.9mph /  4.7km/h 6.0mph /  9.7km/h 42% 0.00in /  0mm 592.0 W/m2
08:49 77.7 °F /  25.4 °C 52.9 °F /  11.6 °C 30.16in /  1021.2hPa North 6.0mph /  9.7km/h 6.0mph /  9.7km/h 42% 0.00in /  0mm 462.0 W/m2
08:54 77.9 °F /  25.5 °C 51.6 °F /  10.9 °C 30.16in /  1021.2hPa NNW 4.9mph /  7.9km/h 10.0mph /  16.1km/h 40% 0.00in /  0mm 631.0 W/m2
08:59 77.9 °F /  25.5 °C 51.6 °F /  10.9 °C 30.16in /  1021.2hPa NNE 6.9mph /  11.1km/h 8.0mph /  12.9km/h 40% 0.00in /  0mm 652.0 W/m2
09:04 78.1 °F /  25.6 °C 51.8 °F /  11 °C 30.16in /  1021.2hPa WNW 4.9mph /  7.9km/h 7.0mph /  11.3km/h 40% 0.00in /  0mm 701.0 W/m2
09:09 78.4 °F /  25.8 °C 51.4 °F /  10.8 °C 30.16in /  1021.2hPa NE 8.1mph /  13km/h 9.0mph /  14.5km/h 39% 0.00in /  0mm 763.0 W/m2
09:14 78.4 °F /  25.8 °C 51.4 °F /  10.8 °C 30.16in /  1021.2hPa North 2.0mph /  3.2km/h 6.0mph /  9.7km/h 39% 0.00in /  0mm 517.0 W/m2
09:19 78.6 °F /  25.9 °C 51.6 °F /  10.9 °C 30.16in /  1021.2hPa NE 4.9mph /  7.9km/h 7.0mph /  11.3km/h 39% 0.00in /  0mm 737.0 W/m2
09:24 79.2 °F /  26.2 °C 51.4 °F /  10.8 °C 30.16in /  1021.2hPa NNE 6.9mph /  11.1km/h 8.0mph /  12.9km/h 38% 0.00in /  0mm 731.0 W/m2
09:30 79.7 °F /  26.5 °C 51.1 °F /  10.6 °C 30.16in /  1021.2hPa NNW 6.0mph /  9.7km/h 9.0mph /  14.5km/h 37% 0.00in /  0mm 779.0 W/m2
09:35 79.5 °F /  26.4 °C 50.9 °F /  10.5 °C 30.16in /  1021.2hPa NE 8.1mph /  13km/h 11.0mph /  17.7km/h 37% 0.00in /  0mm 283.0 W/m2
09:40 79.3 °F /  26.3 °C 51.4 °F /  10.8 °C 30.17in /  1021.6hPa NNW 4.0mph /  6.4km/h 12.0mph /  19.3km/h 38% 0.00in /  0mm 782.0 W/m2
09:46 80.1 °F /  26.7 °C 52.2 °F /  11.2 °C 30.16in /  1021.2hPa North 2.0mph /  3.2km/h 8.0mph /  12.9km/h 38% 0.00in /  0mm 807.0 W/m2
09:51 80.4 °F /  26.9 °C 51.8 °F /  11 °C 30.16in /  1021.2hPa East 6.9mph /  11.1km/h 10.0mph /  16.1km/h 37% 0.00in /  0mm 809.0 W/m2
09:56 80.8 °F /  27.1 °C 51.3 °F /  10.7 °C 30.16in /  1021.2hPa NNE 4.0mph /  6.4km/h 11.0mph /  17.7km/h 36% 0.00in /  0mm 831.0 W/m2
10:01 81.0 °F /  27.2 °C 51.4 °F /  10.8 °C 30.16in /  1021.2hPa East 4.9mph /  7.9km/h 8.0mph /  12.9km/h 36% 0.00in /  0mm 867.0 W/m2
10:06 81.5 °F /  27.5 °C 51.3 °F /  10.7 °C 30.15in /  1020.9hPa NW 2.9mph /  4.7km/h 8.0mph /  12.9km/h 35% 0.00in /  0mm 893.0 W/m2
10:11 81.9 °F /  27.7 °C 50.7 °F /  10.4 °C 30.16in /  1021.2hPa North 8.1mph /  13km/h 12.0mph /  19.3km/h 34% 0.00in /  0mm 893.0 W/m2
10:16 81.9 °F /  27.7 °C 50.0 °F /  10 °C 30.15in /  1020.9hPa NNW 4.0mph /  6.4km/h 8.0mph /  12.9km/h 33% 0.00in /  0mm 956.0 W/m2
10:21 82.2 °F /  27.9 °C 49.5 °F /  9.7 °C 30.16in /  1021.2hPa NNW 2.0mph /  3.2km/h 8.0mph /  12.9km/h 32% 0.00in /  0mm 951.0 W/m2
10:26 82.6 °F /  28.1 °C 48.9 °F /  9.4 °C 30.16in /  1021.2hPa ENE 2.0mph /  3.2km/h 8.0mph /  12.9km/h 31% 0.00in /  0mm 336.0 W/m2
10:31 82.9 °F /  28.3 °C 50.0 °F /  10 °C 30.15in /  1020.9hPa North 12.1mph /  19.5km/h 13.0mph /  20.9km/h 32% 0.00in /  0mm 997.0 W/m2
10:36 83.1 °F /  28.4 °C 50.2 °F /  10.1 °C 30.15in /  1020.9hPa NNE 12.1mph /  19.5km/h 12.1mph /  19.5km/h 32% 0.00in /  0mm 960.0 W/m2
10:42 83.1 °F /  28.4 °C 48.6 °F /  9.2 °C 30.15in /  1020.9hPa NNE 2.9mph /  4.7km/h 10.0mph /  16.1km/h 30% 0.00in /  0mm 279.0 W/m2
10:47 82.8 °F /  28.2 °C 49.8 °F /  9.9 °C 30.15in /  1020.9hPa North 4.9mph /  7.9km/h 9.0mph /  14.5km/h 32% 0.00in /  0mm 260.0 W/m2
10:52 82.4 °F /  28 °C 50.4 °F /  10.2 °C 30.15in /  1020.9hPa NNW 11.0mph /  17.7km/h 11.0mph /  17.7km/h 33% 0.00in /  0mm 1129.0 W/m2
10:57 82.9 °F /  28.3 °C 50.9 °F /  10.5 °C 30.15in /  1020.9hPa North 4.0mph /  6.4km/h 10.0mph /  16.1km/h 33% 0.00in /  0mm 963.0 W/m2
11:02 83.1 °F /  28.4 °C 50.2 °F /  10.1 °C 30.15in /  1020.9hPa North 6.9mph /  11.1km/h 8.0mph /  12.9km/h 32% 0.00in /  0mm 497.0 W/m2
11:07 83.7 °F /  28.7 °C 49.8 °F /  9.9 °C 30.15in /  1020.9hPa North 6.0mph /  9.7km/h 8.0mph /  12.9km/h 31% 0.00in /  0mm 1259.0 W/m2
11:12 84.4 °F /  29.1 °C 49.6 °F /  9.8 °C 30.15in /  1020.9hPa North 2.9mph /  4.7km/h 10.0mph /  16.1km/h 30% 0.00in /  0mm 1259.0 W/m2
11:17 84.4 °F /  29.1 °C 48.7 °F /  9.3 °C 30.15in /  1020.9hPa NNW 6.0mph /  9.7km/h 8.0mph /  12.9km/h 29% 0.00in /  0mm 274.0 W/m2
11:22 83.8 °F /  28.8 °C 48.2 °F /  9 °C 30.15in /  1020.9hPa North 4.9mph /  7.9km/h 7.0mph /  11.3km/h 29% 0.00in /  0mm 346.0 W/m2
11:28 84.0 °F /  28.9 °C 48.4 °F /  9.1 °C 30.15in /  1020.9hPa NNW 6.0mph /  9.7km/h 8.0mph /  12.9km/h 29% 0.00in /  0mm 346.0 W/m2
11:33 84.6 °F /  29.2 °C 47.8 °F /  8.8 °C 30.15in /  1020.9hPa North 6.0mph /  9.7km/h 11.0mph /  17.7km/h 28% 0.00in /  0mm 1229.0 W/m2
11:38 85.1 °F /  29.5 °C 47.3 °F /  8.5 °C 30.15in /  1020.9hPa North 6.0mph /  9.7km/h 11.0mph /  17.7km/h 27% 0.00in /  0mm 417.0 W/m2
11:43 84.7 °F /  29.3 °C 47.1 °F /  8.4 °C 30.14in /  1020.5hPa NNW 0.9mph /  1.4km/h 7.0mph /  11.3km/h 27% 0.00in /  0mm 573.0 W/m2
11:48 85.1 °F /  29.5 °C 47.3 °F /  8.5 °C 30.14in /  1020.5hPa NNW 4.9mph /  7.9km/h 8.0mph /  12.9km/h 27% 0.00in /  0mm 297.0 W/m2
11:53 84.7 °F /  29.3 °C 46.0 °F /  7.8 °C 30.14in /  1020.5hPa NW 2.9mph /  4.7km/h 10.0mph /  16.1km/h 26% 0.00in /  0mm 283.0 W/m2
11:58 84.4 °F /  29.1 °C 46.8 °F /  8.2 °C 30.14in /  1020.5hPa North 2.9mph /  4.7km/h 3.0mph /  4.8km/h 27% 0.00in /  0mm 1187.0 W/m2
12:03 84.9 °F /  29.4 °C 46.2 °F /  7.9 °C 30.14in /  1020.5hPa ENE 0.9mph /  1.4km/h 3.0mph /  4.8km/h 26% 0.00in /  0mm 255.0 W/m2
12:08 85.3 °F /  29.6 °C 46.6 °F /  8.1 °C 30.14in /  1020.5hPa NNE 8.9mph /  14.3km/h 9.0mph /  14.5km/h 26% 0.00in /  0mm 290.0 W/m2
12:13 85.5 °F /  29.7 °C 46.6 °F /  8.1 °C 30.14in /  1020.5hPa NW 0.9mph /  1.4km/h 10.0mph /  16.1km/h 26% 0.00in /  0mm 271.0 W/m2
12:18 85.3 °F /  29.6 °C 45.5 °F /  7.5 °C 30.14in /  1020.5hPa Calm   2.0mph /  3.2km/h 25% 0.00in /  0mm 279.0 W/m2
12:24 84.9 °F /  29.4 °C 46.2 °F /  7.9 °C 30.14in /  1020.5hPa North 4.9mph /  7.9km/h 5.0mph /  8km/h 26% 0.00in /  0mm 250.0 W/m2
12:29 84.6 °F /  29.2 °C 45.0 °F /  7.2 °C 30.14in /  1020.5hPa SSE 2.0mph /  3.2km/h 2.0mph /  3.2km/h 25% 0.00in /  0mm 292.0 W/m2
12:34 84.2 °F /  29 °C 45.7 °F /  7.6 °C 30.13in /  1020.2hPa SSW 0.9mph /  1.4km/h 4.0mph /  6.4km/h 26% 0.00in /  0mm 299.0 W/m2
12:39 84.4 °F /  29.1 °C 45.7 °F /  7.6 °C 30.13in /  1020.2hPa West 0.9mph /  1.4km/h 4.0mph /  6.4km/h 26% 0.00in /  0mm 297.0 W/m2
12:44 84.4 °F /  29.1 °C 45.7 °F /  7.6 °C 30.13in /  1020.2hPa North 2.0mph /  3.2km/h 8.0mph /  12.9km/h 26% 0.00in /  0mm 346.0 W/m2
12:59 84.4 °F /  29.1 °C 44.8 °F /  7.1 °C 30.12in /  1019.9hPa NNE 0.9mph /  1.4km/h 4.0mph /  6.4km/h 25% 0.00in /  0mm 338.0 W/m2
13:04 84.9 °F /  29.4 °C 45.1 °F /  7.3 °C 30.12in /  1019.9hPa NNW 4.9mph /  7.9km/h 8.0mph /  12.9km/h 25% 0.00in /  0mm 359.0 W/m2
13:09 85.8 °F /  29.9 °C 45.9 °F /  7.7 °C 30.12in /  1019.9hPa Calm   5.0mph /  8km/h 25% 0.00in /  0mm 1148.0 W/m2
13:15 87.1 °F /  30.6 °C 45.9 °F /  7.7 °C 30.11in /  1019.5hPa WNW 2.0mph /  3.2km/h 5.0mph /  8km/h 24% 0.00in /  0mm 1137.0 W/m2
13:20 88.5 °F /  31.4 °C 46.0 °F /  7.8 °C 30.11in /  1019.5hPa Calm   7.0mph /  11.3km/h 23% 0.00in /  0mm 1153.0 W/m2
13:25 88.9 °F /  31.6 °C 46.2 °F /  7.9 °C 30.11in /  1019.5hPa NE 8.1mph /  13km/h 9.0mph /  14.5km/h 23% 0.00in /  0mm 257.0 W/m2
13:30 88.3 °F /  31.3 °C 45.9 °F /  7.7 °C 30.11in /  1019.5hPa NW 8.9mph /  14.3km/h 9.0mph /  14.5km/h 23% 0.00in /  0mm 1176.0 W/m2
13:35 88.2 °F /  31.2 °C 45.7 °F /  7.6 °C 30.11in /  1019.5hPa WSW 2.9mph /  4.7km/h 5.0mph /  8km/h 23% 0.00in /  0mm 1039.0 W/m2
13:40 88.2 °F /  31.2 °C 45.7 °F /  7.6 °C 30.11in /  1019.5hPa North 2.0mph /  3.2km/h 5.0mph /  8km/h 23% 0.00in /  0mm 1039.0 W/m2
13:45 88.2 °F /  31.2 °C 45.7 °F /  7.6 °C 30.10in /  1019.2hPa NW 2.9mph /  4.7km/h 11.0mph /  17.7km/h 23% 0.00in /  0mm 1100.0 W/m2
13:50 88.9 °F /  31.6 °C 46.2 °F /  7.9 °C 30.10in /  1019.2hPa NNE 4.9mph /  7.9km/h 11.0mph /  17.7km/h 23% 0.00in /  0mm 1035.0 W/m2
13:55 89.4 °F /  31.9 °C 45.5 °F /  7.5 °C 30.10in /  1019.2hPa Calm   3.0mph /  4.8km/h 22% 0.00in /  0mm 1028.0 W/m2
14:01 89.8 °F /  32.1 °C 45.9 °F /  7.7 °C 30.10in /  1019.2hPa North 2.0mph /  3.2km/h 7.0mph /  11.3km/h 22% 0.00in /  0mm 1025.0 W/m2
14:06 90.1 °F /  32.3 °C 46.2 °F /  7.9 °C 30.10in /  1019.2hPa WNW 0.9mph /  1.4km/h 7.0mph /  11.3km/h 22% 0.00in /  0mm 1025.0 W/m2
14:11 90.7 °F /  32.6 °C 46.6 °F /  8.1 °C 30.09in /  1018.8hPa North 4.0mph /  6.4km/h 10.0mph /  16.1km/h 22% 0.00in /  0mm 1020.0 W/m2
14:16 90.7 °F /  32.6 °C 46.6 °F /  8.1 °C 30.09in /  1018.8hPa Calm   5.0mph /  8km/h 22% 0.00in /  0mm 1020.0 W/m2
14:21 90.5 °F /  32.5 °C 45.3 °F /  7.4 °C 30.09in /  1018.8hPa NNW 8.1mph /  13km/h 8.1mph /  13km/h 21% 0.00in /  0mm 1044.0 W/m2
14:27 90.7 °F /  32.6 °C 44.1 °F /  6.7 °C 30.09in /  1018.8hPa NNE 2.9mph /  4.7km/h 9.0mph /  14.5km/h 20% 0.00in /  0mm 1000.0 W/m2
14:32 90.9 °F /  32.7 °C 44.2 °F /  6.8 °C 30.09in /  1018.8hPa WNW 6.9mph /  11.1km/h 8.0mph /  12.9km/h 20% 0.00in /  0mm 997.0 W/m2
14:37 90.9 °F /  32.7 °C 44.2 °F /  6.8 °C 30.08in /  1018.5hPa NNW 12.1mph /  19.5km/h 12.1mph /  19.5km/h 20% 0.00in /  0mm 981.0 W/m2
14:42 91.0 °F /  32.8 °C 45.7 °F /  7.6 °C 30.08in /  1018.5hPa NNW 2.9mph /  4.7km/h 4.0mph /  6.4km/h 21% 0.00in /  0mm 965.0 W/m2
14:48 91.6 °F /  33.1 °C 44.8 °F /  7.1 °C 30.08in /  1018.5hPa WSW 6.9mph /  11.1km/h 11.0mph /  17.7km/h 20% 0.00in /  0mm 940.0 W/m2
14:53 91.2 °F /  32.9 °C 45.9 °F /  7.7 °C 30.07in /  1018.2hPa NNW 2.0mph /  3.2km/h 7.0mph /  11.3km/h 21% 0.00in /  0mm 970.0 W/m2
14:58 91.4 °F /  33 °C 46.0 °F /  7.8 °C 30.07in /  1018.2hPa WSW 2.9mph /  4.7km/h 13.0mph /  20.9km/h 21% 0.00in /  0mm 905.0 W/m2
15:03 91.0 °F /  32.8 °C 44.4 °F /  6.9 °C 30.07in /  1018.2hPa NNE 2.9mph /  4.7km/h 10.0mph /  16.1km/h 20% 0.00in /  0mm 251.0 W/m2
15:08 90.7 °F /  32.6 °C 45.3 °F /  7.4 °C 30.07in /  1018.2hPa NW 4.0mph /  6.4km/h 13.0mph /  20.9km/h 21% 0.00in /  0mm 981.0 W/m2
15:13 90.9 °F /  32.7 °C 44.2 °F /  6.8 °C 30.07in /  1018.2hPa NNW 4.0mph /  6.4km/h 7.0mph /  11.3km/h 20% 0.00in /  0mm 942.0 W/m2
15:18 90.3 °F /  32.4 °C 45.1 °F /  7.3 °C 30.07in /  1018.2hPa North 4.9mph /  7.9km/h 9.0mph /  14.5km/h 21% 0.00in /  0mm 139.0 W/m2
15:23 90.0 °F /  32.2 °C 46.0 °F /  7.8 °C 30.07in /  1018.2hPa Calm   3.0mph /  4.8km/h 22% 0.00in /  0mm 265.0 W/m2
15:28 90.0 °F /  32.2 °C 44.8 °F /  7.1 °C 30.06in /  1017.8hPa Calm   3.0mph /  4.8km/h 21% 0.00in /  0mm 933.0 W/m2
15:34 90.1 °F /  32.3 °C 46.2 °F /  7.9 °C 30.06in /  1017.8hPa WNW 2.0mph /  3.2km/h 10.0mph /  16.1km/h 22% 0.00in /  0mm 631.0 W/m2
15:39 90.1 °F /  32.3 °C 46.2 °F /  7.9 °C 30.05in /  1017.5hPa NW 2.0mph /  3.2km/h 5.0mph /  8km/h 22% 0.00in /  0mm 146.0 W/m2
15:44 90.1 °F /  32.3 °C 46.2 °F /  7.9 °C 30.05in /  1017.5hPa WNW 0.9mph /  1.4km/h 6.0mph /  9.7km/h 22% 0.00in /  0mm 905.0 W/m2
15:49 90.0 °F /  32.2 °C 46.0 °F /  7.8 °C 30.05in /  1017.5hPa NNW 4.9mph /  7.9km/h 11.0mph /  17.7km/h 22% 0.00in /  0mm 135.0 W/m2
15:54 89.1 °F /  31.7 °C 45.3 °F /  7.4 °C 30.05in /  1017.5hPa WNW 2.9mph /  4.7km/h 8.0mph /  12.9km/h 22% 0.00in /  0mm 130.0 W/m2
15:59 88.2 °F /  31.2 °C 44.6 °F /  7 °C 30.05in /  1017.5hPa NNW 2.9mph /  4.7km/h 5.0mph /  8km/h 22% 0.00in /  0mm 830.0 W/m2
16:04 88.5 °F /  31.4 °C 44.8 °F /  7.1 °C 30.04in /  1017.2hPa NNW 6.9mph /  11.1km/h 9.0mph /  14.5km/h 22% 0.00in /  0mm 229.0 W/m2
16:09 88.3 °F /  31.3 °C 44.6 °F /  7 °C 30.04in /  1017.2hPa NNE 4.9mph /  7.9km/h 11.0mph /  17.7km/h 22% 0.00in /  0mm 225.0 W/m2
16:14 88.3 °F /  31.3 °C 44.6 °F /  7 °C 30.04in /  1017.2hPa North 4.0mph /  6.4km/h 7.0mph /  11.3km/h 22% 0.00in /  0mm 466.0 W/m2
16:19 88.2 °F /  31.2 °C 44.6 °F /  7 °C 30.04in /  1017.2hPa Calm   10.0mph /  16.1km/h 22% 0.00in /  0mm 773.0 W/m2
16:24 89.1 °F /  31.7 °C 44.1 °F /  6.7 °C 30.04in /  1017.2hPa North 4.0mph /  6.4km/h 7.0mph /  11.3km/h 21% 0.00in /  0mm 656.0 W/m2
16:30 89.4 °F /  31.9 °C 43.0 °F /  6.1 °C 30.04in /  1017.2hPa NNE 6.0mph /  9.7km/h 12.0mph /  19.3km/h 20% 0.00in /  0mm 729.0 W/m2
16:35 90.0 °F /  32.2 °C 43.5 °F /  6.4 °C 30.04in /  1017.2hPa Calm   4.0mph /  6.4km/h 20% 0.00in /  0mm 752.0 W/m2
16:40 90.7 °F /  32.6 °C 44.1 °F /  6.7 °C 30.04in /  1017.2hPa WSW 0.9mph /  1.4km/h 9.0mph /  14.5km/h 20% 0.00in /  0mm 647.0 W/m2
16:45 90.5 °F /  32.5 °C 42.6 °F /  5.9 °C 30.04in /  1017.2hPa WNW 0.9mph /  1.4km/h 7.0mph /  11.3km/h 19% 0.00in /  0mm 105.0 W/m2
16:48 90.1 °F /  32.3 °C 43.7 °F /  6.5 °C 30.04in /  1017.2hPa Calm   1.0mph /  1.6km/h 20% 0.00in /  0mm 95.0 W/m2
16:53 89.2 °F /  31.8 °C 43.0 °F /  6.1 °C 30.04in /  1017.2hPa WNW 0.9mph /  1.4km/h 5.0mph /  8km/h 20% 0.00in /  0mm 90.0 W/m2
16:58 88.5 °F /  31.4 °C 43.5 °F /  6.4 °C 30.03in /  1016.8hPa WNW 2.0mph /  3.2km/h 8.0mph /  12.9km/h 21% 0.00in /  0mm 118.0 W/m2
17:03 88.0 °F /  31.1 °C 43.2 °F /  6.2 °C 30.04in /  1017.2hPa WSW 4.9mph /  7.9km/h 7.0mph /  11.3km/h 21% 0.00in /  0mm 132.0 W/m2
17:08 87.3 °F /  30.7 °C 43.7 °F /  6.5 °C 30.03in /  1016.8hPa Calm   5.0mph /  8km/h 22% 0.00in /  0mm 137.0 W/m2
17:13 87.1 °F /  30.6 °C 42.4 °F /  5.8 °C 30.03in /  1016.8hPa NNW 0.9mph /  1.4km/h 5.0mph /  8km/h 21% 0.00in /  0mm 123.0 W/m2
17:19 87.1 °F /  30.6 °C 42.4 °F /  5.8 °C 30.04in /  1017.2hPa WSW 0.9mph /  1.4km/h 8.0mph /  12.9km/h 21% 0.00in /  0mm 114.0 W/m2
17:24 86.7 °F /  30.4 °C 43.3 °F /  6.3 °C 30.03in /  1016.8hPa West 0.9mph /  1.4km/h 7.0mph /  11.3km/h 22% 0.00in /  0mm 113.0 W/m2
17:29 86.5 °F /  30.3 °C 43.2 °F /  6.2 °C 30.03in /  1016.8hPa South 0.9mph /  1.4km/h 9.0mph /  14.5km/h 22% 0.00in /  0mm 100.0 W/m2
17:34 86.9 °F /  30.5 °C 43.5 °F /  6.4 °C 30.03in /  1016.8hPa WNW 2.9mph /  4.7km/h 8.0mph /  12.9km/h 22% 0.00in /  0mm 383.0 W/m2
17:39 87.6 °F /  30.9 °C 42.8 °F /  6 °C 30.04in /  1017.2hPa NW 2.0mph /  3.2km/h 6.0mph /  9.7km/h 21% 0.00in /  0mm 84.0 W/m2
17:45 88.0 °F /  31.1 °C 43.2 °F /  6.2 °C 30.03in /  1016.8hPa West 0.9mph /  1.4km/h 6.0mph /  9.7km/h 21% 0.00in /  0mm 359.0 W/m2
17:50 88.5 °F /  31.4 °C 43.5 °F /  6.4 °C 30.04in /  1017.2hPa WNW 4.0mph /  6.4km/h 10.0mph /  16.1km/h 21% 0.00in /  0mm 380.0 W/m2
17:55 89.2 °F /  31.8 °C 43.0 °F /  6.1 °C 30.04in /  1017.2hPa West 6.9mph /  11.1km/h 7.0mph /  11.3km/h 20% 0.00in /  0mm 332.0 W/m2
18:00 89.4 °F /  31.9 °C 43.0 °F /  6.1 °C 30.04in /  1017.2hPa WSW 4.9mph /  7.9km/h 8.0mph /  12.9km/h 20% 0.00in /  0mm 295.0 W/m2
18:06 89.2 °F /  31.8 °C 43.0 °F /  6.1 °C 30.04in /  1017.2hPa SW 2.9mph /  4.7km/h 10.0mph /  16.1km/h 20% 0.00in /  0mm 60.0 W/m2
18:11 88.0 °F /  31.1 °C 43.2 °F /  6.2 °C 30.04in /  1017.2hPa West 6.9mph /  11.1km/h 8.0mph /  12.9km/h 21% 0.00in /  0mm 72.0 W/m2
18:16 87.4 °F /  30.8 °C 43.9 °F /  6.6 °C 30.05in /  1017.5hPa West 2.0mph /  3.2km/h 9.0mph /  14.5km/h 22% 0.00in /  0mm 211.0 W/m2
18:21 87.1 °F /  30.6 °C 48.0 °F /  8.9 °C 30.05in /  1017.5hPa WNW 2.0mph /  3.2km/h 7.0mph /  11.3km/h 26% 0.00in /  0mm 127.0 W/m2
18:26 86.0 °F /  30 °C 46.0 °F /  7.8 °C 30.05in /  1017.5hPa NW 0.9mph /  1.4km/h 10.0mph /  16.1km/h 25% 0.00in /  0mm 63.0 W/m2
18:31 84.6 °F /  29.2 °C 51.4 °F /  10.8 °C 30.05in /  1017.5hPa Calm   3.0mph /  4.8km/h 32% 0.01in /  0.25mm 62.0 W/m2
18:36 82.9 °F /  28.3 °C 53.2 °F /  11.8 °C 30.05in /  1017.5hPa Calm     36% 0.01in /  0.25mm 69.0 W/m2
18:41 82.2 °F /  27.9 °C 60.6 °F /  15.9 °C 30.05in /  1017.5hPa Calm   1.0mph /  1.6km/h 48% 0.02in /  0.51mm 70.0 W/m2
18:47 81.0 °F /  27.2 °C 57.0 °F /  13.9 °C 30.05in /  1017.5hPa NNE 2.9mph /  4.7km/h 3.0mph /  4.8km/h 44% 0.02in /  0.51mm 58.0 W/m2
18:54 79.2 °F /  26.2 °C 54.7 °F /  12.6 °C 30.04in /  1017.2hPa Calm   5.0mph /  8km/h 43% 0.02in /  0.51mm 42.0 W/m2
18:59 78.3 °F /  25.7 °C 55.2 °F /  12.9 °C 30.04in /  1017.2hPa Calm   3.0mph /  4.8km/h 45% 0.02in /  0.51mm 33.0 W/m2
19:04 77.5 °F /  25.3 °C 55.0 °F /  12.8 °C 30.05in /  1017.5hPa Calm     46% 0.02in /  0.51mm 28.0 W/m2
19:14 77.9 °F /  25.5 °C 43.2 °F /  6.2 °C 30.06in /  1017.8hPa SW 6.0mph /  9.7km/h 13.0mph /  20.9km/h 29% 0.02in /  0.51mm 21.0 W/m2
19:19 79.2 °F /  26.2 °C 41.4 °F /  5.2 °C 30.06in /  1017.8hPa SW 2.0mph /  3.2km/h 9.0mph /  14.5km/h 26% 0.02in /  0.51mm 12.0 W/m2
19:24 80.1 °F /  26.7 °C 41.0 °F /  5 °C 30.07in /  1018.2hPa SW 8.9mph /  14.3km/h 10.0mph /  16.1km/h 25% 0.02in /  0.51mm 7.0 W/m2
19:29 80.6 °F /  27 °C 40.5 °F /  4.7 °C 30.07in /  1018.2hPa SW 2.0mph /  3.2km/h 10.0mph /  16.1km/h 24% 0.02in /  0.51mm 0.0 W/m2
19:34 80.8 °F /  27.1 °C 40.6 °F /  4.8 °C 30.07in /  1018.2hPa West 8.1mph /  13km/h 11.0mph /  17.7km/h 24% 0.02in /  0.51mm 0.0 W/m2
19:39 80.8 °F /  27.1 °C 39.6 °F /  4.2 °C 30.08in /  1018.5hPa WSW 4.0mph /  6.4km/h 10.0mph /  16.1km/h 23% 0.01in /  0.25mm 0.0 W/m2
19:45 80.6 °F /  27 °C 39.4 °F /  4.1 °C 30.08in /  1018.5hPa WSW 2.0mph /  3.2km/h 10.0mph /  16.1km/h 23% 0.00in /  0mm 0.0 W/m2
19:50 80.4 °F /  26.9 °C 39.2 °F /  4 °C 30.08in /  1018.5hPa WSW 6.9mph /  11.1km/h 8.0mph /  12.9km/h 23% 0.00in /  0mm 0.0 W/m2
19:55 80.1 °F /  26.7 °C 38.8 °F /  3.8 °C 30.08in /  1018.5hPa WNW 2.0mph /  3.2km/h 8.0mph /  12.9km/h 23% 0.00in /  0mm 0.0 W/m2
20:00 80.1 °F /  26.7 °C 38.8 °F /  3.8 °C 30.09in /  1018.8hPa SSE 0.9mph /  1.4km/h 5.0mph /  8km/h 23% 0.00in /  0mm 0.0 W/m2
20:05 79.7 °F /  26.5 °C 38.7 °F /  3.7 °C 30.10in /  1019.2hPa West 4.9mph /  7.9km/h 7.0mph /  11.3km/h 23% 0.00in /  0mm 0.0 W/m2
20:11 79.3 °F /  26.3 °C 37.2 °F /  2.9 °C 30.10in /  1019.2hPa SW 0.9mph /  1.4km/h 10.0mph /  16.1km/h 22% 0.00in /  0mm 0.0 W/m2
20:16 79.2 °F /  26.2 °C 37.0 °F /  2.8 °C 30.11in /  1019.5hPa West 4.9mph /  7.9km/h 5.0mph /  8km/h 22% 0.00in /  0mm 0.0 W/m2
20:21 79.2 °F /  26.2 °C 37.0 °F /  2.8 °C 30.11in /  1019.5hPa Calm   3.0mph /  4.8km/h 22% 0.00in /  0mm 0.0 W/m2
20:26 79.0 °F /  26.1 °C 36.9 °F /  2.7 °C 30.12in /  1019.9hPa East 0.9mph /  1.4km/h 2.0mph /  3.2km/h 22% 0.00in /  0mm 0.0 W/m2
20:32 78.8 °F /  26 °C 48.9 °F /  9.4 °C 30.12in /  1019.9hPa Calm   5.0mph /  8km/h 35% 0.00in /  0mm 0.0 W/m2
20:37 78.4 °F /  25.8 °C 49.3 °F /  9.6 °C 30.12in /  1019.9hPa Calm   2.0mph /  3.2km/h 36% 0.00in /  0mm 0.0 W/m2
20:42 78.1 °F /  25.6 °C 48.9 °F /  9.4 °C 30.12in /  1019.9hPa Calm     36% 0.00in /  0mm 0.0 W/m2
20:47 77.5 °F /  25.3 °C 45.3 °F /  7.4 °C 30.12in /  1019.9hPa NNE 0.9mph /  1.4km/h 1.0mph /  1.6km/h 32% 0.00in /  0mm 0.0 W/m2
20:52 77.2 °F /  25.1 °C 40.6 °F /  4.8 °C 30.13in /  1020.2hPa Calm     27% 0.00in /  0mm 0.0 W/m2
20:57 76.8 °F /  24.9 °C 40.3 °F /  4.6 °C 30.13in /  1020.2hPa Calm     27% 0.00in /  0mm 0.0 W/m2
21:02 76.5 °F /  24.7 °C 37.9 °F /  3.3 °C 30.13in /  1020.2hPa Calm   1.0mph /  1.6km/h 25% 0.00in /  0mm 0.0 W/m2
21:07 76.1 °F /  24.5 °C 38.7 °F /  3.7 °C 30.14in /  1020.5hPa SSE 0.9mph /  1.4km/h 2.0mph /  3.2km/h 26% 0.00in /  0mm 0.0 W/m2
21:13 75.9 °F /  24.4 °C 37.6 °F /  3.1 °C 30.14in /  1020.5hPa Calm     25% 0.00in /  0mm 0.0 W/m2
21:18 75.6 °F /  24.2 °C 36.3 °F /  2.4 °C 30.15in /  1020.9hPa Calm   6.0mph /  9.7km/h 24% 0.00in /  0mm 0.0 W/m2
21:23 75.6 °F /  24.2 °C 38.3 °F /  3.5 °C 30.15in /  1020.9hPa Calm   2.0mph /  3.2km/h 26% 0.00in /  0mm 0.0 W/m2
21:28 75.4 °F /  24.1 °C 35.1 °F /  1.7 °C 30.15in /  1020.9hPa Calm   1.0mph /  1.6km/h 23% 0.00in /  0mm 0.0 W/m2
21:33 75.4 °F /  24.1 °C 37.0 °F /  2.8 °C 30.15in /  1020.9hPa West 0.9mph /  1.4km/h 1.0mph /  1.6km/h 25% 0.00in /  0mm 0.0 W/m2
21:38 75.0 °F /  23.9 °C 35.8 °F /  2.1 °C 30.15in /  1020.9hPa Calm   1.0mph /  1.6km/h 24% 0.00in /  0mm 0.0 W/m2
21:43 74.8 °F /  23.8 °C 35.6 °F /  2 °C 30.15in /  1020.9hPa Calm     24% 0.00in /  0mm 0.0 W/m2
21:49 74.7 °F /  23.7 °C 35.4 °F /  1.9 °C 30.16in /  1021.2hPa Calm   1.0mph /  1.6km/h 24% 0.00in /  0mm 0.0 W/m2
21:54 74.3 °F /  23.5 °C 38.1 °F /  3.4 °C 30.16in /  1021.2hPa Calm   1.0mph /  1.6km/h 27% 0.00in /  0mm 0.0 W/m2
21:59 73.9 °F /  23.3 °C 37.8 °F /  3.2 °C 30.15in /  1020.9hPa ENE 0.9mph /  1.4km/h 2.0mph /  3.2km/h 27% 0.00in /  0mm 0.0 W/m2
22:04 73.6 °F /  23.1 °C 38.5 °F /  3.6 °C 30.16in /  1021.2hPa Calm     28% 0.00in /  0mm 0.0 W/m2
22:09 73.0 °F /  22.8 °C 40.6 °F /  4.8 °C 30.16in /  1021.2hPa Calm   1.0mph /  1.6km/h 31% 0.00in /  0mm 0.0 W/m2
22:14 72.7 °F /  22.6 °C 40.3 °F /  4.6 °C 30.17in /  1021.6hPa Calm     31% 0.00in /  0mm 0.0 W/m2
22:19 72.1 °F /  22.3 °C 40.6 °F /  4.8 °C 30.17in /  1021.6hPa Calm   2.0mph /  3.2km/h 32% 0.00in /  0mm 0.0 W/m2
22:24 71.6 °F /  22 °C 41.0 °F /  5 °C 30.17in /  1021.6hPa Calm     33% 0.00in /  0mm 0.0 W/m2
22:30 71.2 °F /  21.8 °C 41.4 °F /  5.2 °C 30.17in /  1021.6hPa Calm     34% 0.00in /  0mm 0.0 W/m2
22:35 70.9 °F /  21.6 °C 41.9 °F /  5.5 °C 30.17in /  1021.6hPa Calm     35% 0.00in /  0mm 0.0 W/m2
22:40 70.7 °F /  21.5 °C 42.4 °F /  5.8 °C 30.17in /  1021.6hPa Calm     36% 0.00in /  0mm 0.0 W/m2
22:45 70.3 °F /  21.3 °C 43.5 °F /  6.4 °C 30.17in /  1021.6hPa Calm     38% 0.00in /  0mm 0.0 W/m2
22:50 70.2 °F /  21.2 °C 44.8 °F /  7.1 °C 30.18in /  1021.9hPa Calm     40% 0.00in /  0mm 0.0 W/m2
22:55 70.0 °F /  21.1 °C 43.2 °F /  6.2 °C 30.18in /  1021.9hPa ESE 0.9mph /  1.4km/h 2.0mph /  3.2km/h 38% 0.00in /  0mm 0.0 W/m2
23:00 69.8 °F /  21 °C 41.0 °F /  5 °C 30.18in /  1021.9hPa ESE 2.9mph /  4.7km/h 3.0mph /  4.8km/h 35% 0.00in /  0mm 0.0 W/m2
23:05 69.8 °F /  21 °C 42.4 °F /  5.8 °C 30.18in /  1021.9hPa East 0.9mph /  1.4km/h 2.0mph /  3.2km/h 37% 0.00in /  0mm 0.0 W/m2
23:10 69.8 °F /  21 °C 45.7 °F /  7.6 °C 30.18in /  1021.9hPa Calm   2.0mph /  3.2km/h 42% 0.00in /  0mm 0.0 W/m2
23:16 69.8 °F /  21 °C 46.9 °F /  8.3 °C 30.18in /  1021.9hPa Calm   3.0mph /  4.8km/h 44% 0.00in /  0mm 0.0 W/m2
23:21 69.8 °F /  21 °C 46.2 °F /  7.9 °C 30.19in /  1022.2hPa Calm   1.0mph /  1.6km/h 43% 0.00in /  0mm 0.0 W/m2
23:26 69.8 °F /  21 °C 45.0 °F /  7.2 °C 30.18in /  1021.9hPa Calm     41% 0.00in /  0mm 0.0 W/m2
23:31 69.8 °F /  21 °C 43.0 °F /  6.1 °C 30.19in /  1022.2hPa Calm     38% 0.00in /  0mm 0.0 W/m2
23:36 69.6 °F /  20.9 °C 44.2 °F /  6.8 °C 30.19in /  1022.2hPa Calm   1.0mph /  1.6km/h 40% 0.00in /  0mm 0.0 W/m2
23:41 69.6 °F /  20.9 °C 46.8 °F /  8.2 °C 30.20in /  1022.6hPa East 0.9mph /  1.4km/h 2.0mph /  3.2km/h 44% 0.00in /  0mm 0.0 W/m2
23:46 69.6 °F /  20.9 °C 47.3 °F /  8.5 °C 30.20in /  1022.6hPa Calm   2.0mph /  3.2km/h 45% 0.00in /  0mm 0.0 W/m2
23:52 69.6 °F /  20.9 °C 47.8 °F /  8.8 °C 30.20in /  1022.6hPa Calm   2.0mph /  3.2km/h 46% 0.00in /  0mm 0.0 W/m2
23:57 69.6 °F /  20.9 °C 47.3 °F /  8.5 °C 30.20in /  1022.6hPa Calm   1.0mph /  1.6km/h 45% 0.00in /  0mm 0.0 W/m2
Olympia, Windhoek, Namibia
Compliments of Weather Underground - 3.25 mb